Time;durP1;ratioP1;P1;durP2;ratioP2;P2;SDS_P1;SDS_P2;PMS_P1;PMS_P2;Temp;Humidity;BMP_temperature;BMP_pressure;BME280_temperature;BME280_humidity;BME280_pressure;Samples;Min_cycle;Max_cycle;Signal;HPM_P1;HPM_P2
2022/09/03 08:36:16;;;;;;;15.23;9.88;;;22.60;69.90;;;;;;4982359;28;20054;-75
2022/09/03 08:38:45;;;;;;;13.27;10.00;;;22.70;68.20;;;;;;4976847;28;20053;-77
2022/09/03 08:41:19;;;;;;;12.40;8.75;;;22.80;68.40;;;;;;4977128;28;20046;-74
2022/09/03 08:43:59;;;;;;;11.82;9.55;;;22.90;68.70;;;;;;4981947;28;20364;-74
2022/09/03 08:46:35;;;;;;;13.65;10.43;;;23.00;68.40;;;;;;4975320;28;20043;-76
2022/09/03 08:49:01;;;;;;;12.60;8.90;;;23.10;68.10;;;;;;4974282;28;20121;-74
2022/09/03 08:51:27;;;;;;;11.30;8.93;;;23.20;67.70;;;;;;4979140;28;20117;-75
2022/09/03 08:53:56;;;;;;;16.92;10.40;;;23.40;67.40;;;;;;4974460;28;20030;-75
2022/09/03 08:56:27;;;;;;;12.00;10.13;;;23.60;67.00;;;;;;4976447;28;20037;-82
2022/09/03 08:58:54;;;;;;;13.60;10.32;;;23.70;65.80;;;;;;4973865;28;20080;-73
2022/09/03 09:01:41;;;;;;;13.20;10.30;;;23.80;65.80;;;;;;4975445;28;20042;-73
2022/09/03 09:04:43;;;;;;;14.15;10.32;;;23.80;64.90;;;;;;4976506;28;20038;-75
2022/09/03 09:07:32;;;;;;;12.75;8.88;;;23.90;65.00;;;;;;4970311;28;20043;-72
2022/09/03 09:10:32;;;;;;;13.15;10.02;;;24.10;65.20;;;;;;4970127;28;20458;-74
2022/09/03 09:13:32;;;;;;;12.93;10.48;;;24.20;64.30;;;;;;4974056;28;20137;-76
2022/09/03 09:16:28;;;;;;;16.80;11.60;;;24.20;64.40;;;;;;4974032;28;20053;-74
2022/09/03 09:18:56;;;;;;;13.73;11.07;;;24.10;64.30;;;;;;4975286;28;20039;-73
2022/09/03 09:21:34;;;;;;;14.60;11.02;;;24.20;64.40;;;;;;4980899;28;20038;-77
2022/09/03 09:24:05;;;;;;;17.48;10.57;;;24.30;63.90;;;;;;4975836;28;20043;-73
2022/09/03 09:26:32;;;;;;;11.70;8.88;;;24.30;63.20;;;;;;4973774;28;20030;-73
2022/09/03 09:29:04;;;;;;;12.32;10.20;;;24.40;62.80;;;;;;4977291;28;20441;-73
2022/09/03 09:31:31;;;;;;;12.55;10.32;;;24.40;63.00;;;;;;4983272;28;20079;-72
2022/09/03 09:34:15;;;;;;;13.55;10.98;;;24.60;62.90;;;;;;4982669;28;20066;-73
2022/09/03 09:36:51;;;;;;;13.93;10.10;;;24.70;63.50;;;;;;4982142;28;20030;-74
2022/09/03 09:39:18;;;;;;;13.73;10.35;;;24.80;62.10;;;;;;4978712;28;20039;-73
2022/09/03 09:41:57;;;;;;;11.57;10.02;;;24.90;61.40;;;;;;4979567;28;20043;-72
2022/09/03 09:44:26;;;;;;;12.23;10.15;;;24.70;62.60;;;;;;4983602;28;20039;-75
2022/09/03 09:47:10;;;;;;;12.48;10.38;;;24.60;63.00;;;;;;4982845;28;20513;-76
2022/09/03 09:49:50;;;;;;;12.10;10.57;;;24.80;63.10;;;;;;4985539;28;20057;-77
2022/09/03 09:52:17;;;;;;;15.10;10.00;;;24.70;62.40;;;;;;5012940;28;20289;-74
2022/09/03 09:54:47;;;;;;;20.17;11.07;;;24.70;62.40;;;;;;4986417;28;20482;-73
2022/09/03 09:57:21;;;;;;;14.05;11.23;;;24.90;61.90;;;;;;4982859;28;20050;-74
2022/09/03 09:59:49;;;;;;;14.10;11.48;;;25.00;62.30;;;;;;4983530;28;20045;-74
2022/09/03 10:02:27;;;;;;;14.00;12.20;;;25.10;62.10;;;;;;4985862;28;20351;-73
2022/09/03 10:05:18;;;;;;;16.98;14.05;;;24.90;62.40;;;;;;4992450;28;20034;-75
2022/09/03 10:07:58;;;;;;;21.77;13.75;;;25.00;62.30;;;;;;4980947;28;20034;-73
2022/09/03 10:10:25;;;;;;;17.17;13.18;;;25.00;63.00;;;;;;4972427;28;20081;-77
2022/09/03 10:13:04;;;;;;;14.65;12.98;;;25.10;62.90;;;;;;4986074;28;20034;-75
2022/09/03 10:15:39;;;;;;;15.10;13.52;;;25.10;62.90;;;;;;4987266;28;20049;-73
2022/09/03 10:18:25;;;;;;;13.77;12.13;;;25.10;62.50;;;;;;4980910;28;20339;-76
2022/09/03 10:21:14;;;;;;;15.48;13.45;;;25.10;62.60;;;;;;4984080;28;20038;-76
2022/09/03 10:24:14;;;;;;;14.57;12.40;;;25.20;62.30;;;;;;4983752;28;20077;-76
2022/09/03 10:26:43;;;;;;;15.90;14.15;;;25.30;62.40;;;;;;4987914;28;20061;-74
2022/09/03 10:29:09;;;;;;;17.73;13.82;;;25.40;61.40;;;;;;4983945;28;20063;-75
2022/09/03 10:32:03;;;;;;;22.90;14.68;;;25.50;61.20;;;;;;4994573;28;20068;-73
2022/09/03 10:34:58;;;;;;;14.20;12.52;;;25.50;62.00;;;;;;4992872;28;20042;-76
2022/09/03 10:37:37;;;;;;;15.77;13.77;;;25.50;60.70;;;;;;4991953;28;20065;-74
2022/09/03 10:40:15;;;;;;;18.38;15.85;;;25.50;59.90;;;;;;4997729;28;20035;-74
2022/09/03 10:42:58;;;;;;;16.77;14.48;;;25.40;61.30;;;;;;4983269;28;20034;-74
2022/09/03 10:45:32;;;;;;;17.83;14.02;;;25.50;61.40;;;;;;4986103;28;20045;-75
2022/09/03 10:48:37;;;;;;;17.52;15.25;;;25.60;60.80;;;;;;4984131;28;20049;-75
2022/09/03 10:51:24;;;;;;;15.75;14.05;;;25.70;60.20;;;;;;4989804;28;20046;-73
2022/09/03 10:54:15;;;;;;;16.13;13.35;;;25.90;59.60;;;;;;5018171;28;20038;-78
2022/09/03 10:57:05;;;;;;;17.15;14.65;;;25.90;59.40;;;;;;4998078;28;20122;-76
2022/09/03 10:59:32;;;;;;;17.90;15.93;;;26.00;59.50;;;;;;5007438;28;20168;-78
2022/09/03 11:02:22;;;;;;;17.15;14.70;;;25.90;58.60;;;;;;5002658;28;20042;-77
2022/09/03 11:04:52;;;;;;;16.52;14.80;;;26.10;58.60;;;;;;5017906;28;20041;-76
2022/09/03 11:07:22;;;;;;;16.05;14.10;;;26.30;58.00;;;;;;5001143;28;20041;-76
2022/09/03 11:10:14;;;;;;;18.52;15.15;;;26.60;57.70;;;;;;5002008;28;20341;-79
2022/09/03 11:12:45;;;;;;;15.80;13.23;;;26.80;57.00;;;;;;4999162;28;20041;-77
2022/09/03 11:15:25;;;;;;;16.98;14.98;;;26.80;57.50;;;;;;5009518;28;20029;-76
2022/09/03 11:18:07;;;;;;;17.00;14.82;;;26.80;56.60;;;;;;5002349;28;20038;-80
2022/09/03 11:20:34;;;;;;;18.52;15.07;;;27.00;55.10;;;;;;4990160;28;20047;-79
2022/09/03 11:23:03;;;;;;;18.48;16.42;;;26.70;55.50;;;;;;4984521;28;20042;-80
2022/09/03 11:25:40;;;;;;;16.65;14.60;;;26.80;54.80;;;;;;4981390;28;20066;-74
2022/09/03 11:28:54;;;;;;;18.27;14.82;;;26.80;55.50;;;;;;4975294;28;20070;-74
2022/09/03 11:31:42;;;;;;;14.95;12.63;;;27.10;55.10;;;;;;4947562;28;20484;-74
2022/09/03 11:34:25;;;;;;;15.32;13.73;;;27.30;54.60;;;;;;4993193;28;20042;-73
2022/09/03 11:36:51;;;;;;;17.75;14.68;;;27.10;55.10;;;;;;5003758;28;20072;-76
2022/09/03 11:39:33;;;;;;;14.65;13.15;;;27.50;54.70;;;;;;5001881;28;20043;-75
2022/09/03 11:42:08;;;;;;;15.77;13.98;;;27.50;53.40;;;;;;4992792;28;20034;-74
2022/09/03 11:44:41;;;;;;;14.57;13.07;;;27.50;53.70;;;;;;4981841;28;20375;-74
2022/09/03 11:47:15;;;;;;;;;;;27.70;52.90;;;;;;4981228;28;20125;-76
2022/09/03 11:49:46;;;;;;;12.20;10.57;;;28.00;53.60;;;;;;4984498;28;19921;-74
2022/09/03 11:52:12;;;;;;;12.70;10.82;;;28.10;52.30;;;;;;4978934;28;20034;-74
2022/09/03 11:54:45;;;;;;;14.30;12.63;;;28.10;53.00;;;;;;4991458;28;20342;-76
2022/09/03 11:57:31;;;;;;;13.45;11.55;;;28.10;52.70;;;;;;4992026;28;20042;-76
2022/09/03 12:00:13;;;;;;;12.27;10.27;;;28.20;52.10;;;;;;4987836;28;20363;-75
2022/09/03 12:02:49;;;;;;;14.60;11.35;;;28.70;50.80;;;;;;4991768;28;20045;-74
2022/09/03 12:05:35;;;;;;;14.40;10.60;;;28.70;50.30;;;;;;4998286;28;20089;-74
2022/09/03 12:08:17;;;;;;;12.95;10.10;;;28.40;50.70;;;;;;5000766;28;20505;-73
2022/09/03 12:11:08;;;;;;;14.60;11.82;;;28.40;50.00;;;;;;5003389;28;20046;-75
2022/09/03 12:14:03;;;;;;;15.85;13.30;;;28.70;50.60;;;;;;5001697;28;20068;-75
2022/09/03 12:16:48;;;;;;;15.52;12.05;;;28.70;49.90;;;;;;5000917;28;20080;-76
2022/09/03 12:19:51;;;;;;;14.07;12.10;;;28.60;50.20;;;;;;5003032;28;20100;-74
2022/09/03 12:22:19;;;;;;;14.50;10.10;;;28.10;51.10;;;;;;5011878;28;20037;-75
2022/09/03 12:24:45;;;;;;;12.70;10.07;;;28.10;50.70;;;;;;5006391;28;20062;-75
2022/09/03 12:27:25;;;;;;;13.15;9.80;;;28.00;51.20;;;;;;5012266;28;20112;-75
2022/09/03 12:29:58;;;;;;;8.73;7.30;;;28.20;51.30;;;;;;5005231;28;20033;-78
2022/09/03 12:32:36;;;;;;;8.67;6.67;;;28.40;52.10;;;;;;5007688;28;20049;-77
2022/09/03 12:35:18;;;;;;;8.57;6.90;;;28.50;50.00;;;;;;5002421;28;20123;-75
2022/09/03 12:37:47;;;;;;;9.63;8.48;;;28.20;51.20;;;;;;5008771;28;20125;-74
2022/09/03 12:40:25;;;;;;;9.35;6.82;;;28.10;52.20;;;;;;5012560;28;20042;-74
2022/09/03 12:42:52;;;;;;;10.23;8.43;;;28.50;51.30;;;;;;5003212;28;20030;-74
2022/09/03 12:45:23;;;;;;;11.95;8.52;;;28.40;51.90;;;;;;5011534;28;20539;-75
2022/09/03 12:47:49;;;;;;;10.18;7.35;;;28.10;52.30;;;;;;5006574;28;20058;-74
2022/09/03 12:50:20;;;;;;;9.95;7.60;;;27.90;52.50;;;;;;5003642;28;20097;-74
2022/09/03 12:52:58;;;;;;;11.93;7.10;;;27.80;53.30;;;;;;5018546;28;20112;-73
2022/09/03 12:55:58;;;;;;;8.88;5.43;;;28.10;53.20;;;;;;5019096;28;20033;-74
2022/09/03 12:58:29;;;;;;;7.78;4.93;;;28.40;50.80;;;;;;5007945;28;20053;-74
2022/09/03 13:01:12;;;;;;;6.90;4.72;;;28.40;50.50;;;;;;4999792;28;20393;-74
2022/09/03 13:03:46;;;;;;;8.63;6.05;;;28.70;49.40;;;;;;5003676;28;20025;-74
2022/09/03 13:06:16;;;;;;;7.97;5.63;;;28.90;49.50;;;;;;4994610;28;20919;-74
2022/09/03 13:08:55;;;;;;;9.45;6.03;;;28.80;50.30;;;;;;5001211;28;20902;-74
2022/09/03 13:11:23;;;;;;;7.38;5.93;;;28.60;50.00;;;;;;4997602;28;20061;-74
2022/09/03 13:13:59;;;;;;;9.02;6.25;;;28.30;50.80;;;;;;5003762;28;20132;-74
2022/09/03 13:16:36;;;;;;;7.68;4.72;;;28.40;50.80;;;;;;5008022;28;20088;-74
2022/09/03 13:19:28;;;;;;;7.45;5.25;;;28.30;50.10;;;;;;5004889;28;20355;-74
2022/09/03 13:22:24;;;;;;;9.07;5.55;;;28.00;51.10;;;;;;5002384;28;20089;-74
2022/09/03 13:25:13;;;;;;;6.70;4.85;;;27.40;51.10;;;;;;4995881;28;20034;-76
2022/09/03 13:28:03;;;;;;;7.93;4.45;;;27.50;52.10;;;;;;5000962;28;20113;-74
2022/09/03 13:30:46;;;;;;;7.38;4.53;;;27.90;50.90;;;;;;4996990;28;20064;-74
2022/09/03 13:33:24;;;;;;;6.63;4.57;;;28.20;50.70;;;;;;4990929;28;20451;-74
2022/09/03 13:36:01;;;;;;;8.25;3.90;;;28.10;49.70;;;;;;5003013;28;20054;-74
2022/09/03 13:38:38;;;;;;;8.50;5.05;;;28.40;49.80;;;;;;5008530;28;20129;-74
2022/09/03 13:41:18;;;;;;;9.32;5.28;;;28.20;50.10;;;;;;5008355;28;20034;-75
2022/09/03 13:44:08;;;;;;;9.05;4.68;;;28.10;50.20;;;;;;5012567;28;20045;-74
2022/09/03 13:46:46;;;;;;;5.88;3.65;;;28.10;49.80;;;;;;5001101;28;20045;-75
2022/09/03 13:53:01;;;;;;;5.32;3.22;;;28.00;48.90;;;;;;4992980;28;20118;-76
2022/09/03 13:55:42;;;;;;;5.85;3.53;;;28.00;48.40;;;;;;4987200;28;20037;-76
2022/09/03 13:58:30;;;;;;;7.47;3.90;;;28.00;48.90;;;;;;5000546;28;20164;-77
2022/09/03 14:01:10;;;;;;;6.90;4.10;;;28.10;49.70;;;;;;5003031;28;20053;-74
2022/09/03 14:03:48;;;;;;;5.30;3.55;;;28.20;49.80;;;;;;5012928;28;20077;-73
2022/09/03 14:06:41;;;;;;;5.60;3.40;;;28.00;49.80;;;;;;5006552;28;20041;-73
2022/09/03 14:09:29;;;;;;;6.88;3.70;;;27.80;50.30;;;;;;5012238;28;20046;-74
2022/09/03 14:12:23;;;;;;;7.38;3.55;;;27.90;50.00;;;;;;5007888;28;20031;-73
2022/09/03 14:15:04;;;;;;;6.43;3.50;;;27.90;49.30;;;;;;5019207;28;20397;-73
2022/09/03 14:17:43;;;;;;;7.07;3.80;;;27.90;49.80;;;;;;5004641;28;20115;-73
2022/09/03 14:20:28;;;;;;;7.07;3.50;;;27.70;50.40;;;;;;5013133;28;20141;-75
2022/09/03 14:23:15;;;;;;;6.45;3.95;;;27.60;50.70;;;;;;5003161;28;20042;-73
2022/09/03 14:25:54;;;;;;;6.07;3.28;;;27.40;51.20;;;;;;5006971;28;20187;-73
2022/09/03 14:28:39;;;;;;;7.50;3.35;;;27.30;50.60;;;;;;5022824;28;20473;-73
2022/09/03 14:31:15;;;;;;;6.35;3.25;;;27.10;51.20;;;;;;5009658;28;20096;-73
2022/09/03 14:33:43;;;;;;;5.85;2.97;;;27.10;51.20;;;;;;5006110;28;20038;-73
2022/09/03 14:36:28;;;;;;;5.40;3.10;;;27.10;51.20;;;;;;5006223;28;20053;-73
2022/09/03 14:38:59;;;;;;;6.75;3.30;;;27.10;51.30;;;;;;5012670;28;20107;-75
2022/09/03 14:41:54;;;;;;;5.03;2.97;;;27.10;51.20;;;;;;5000552;28;20506;-76
2022/09/03 14:44:46;;;;;;;4.45;2.85;;;27.00;51.00;;;;;;5002687;28;20092;-74
2022/09/03 14:47:24;;;;;;;7.53;3.38;;;27.10;51.20;;;;;;5006413;28;20543;-74
2022/09/03 14:50:12;;;;;;;5.88;3.60;;;27.10;51.30;;;;;;5001850;28;20030;-75
2022/09/03 14:52:56;;;;;;;6.28;3.13;;;27.20;51.10;;;;;;5000537;28;20034;-74
2022/09/03 14:55:37;;;;;;;;;;;27.20;50.90;;;;;;5008201;28;20474;-74
2022/09/03 14:58:12;;;;;;;4.15;2.97;;;27.10;50.50;;;;;;5008426;28;19913;-74
2022/09/03 15:01:00;;;;;;;7.00;3.10;;;27.10;50.20;;;;;;5005126;28;20410;-73
2022/09/03 15:03:40;;;;;;;6.03;3.53;;;27.00;50.60;;;;;;5006246;28;20056;-74
2022/09/03 15:06:33;;;;;;;5.70;3.70;;;27.00;51.50;;;;;;5017897;28;20048;-74
2022/09/03 15:09:16;;;;;;;6.03;3.10;;;27.00;51.90;;;;;;4997586;28;20101;-73
2022/09/03 15:12:09;;;;;;;6.05;3.72;;;27.10;51.60;;;;;;5008026;28;20055;-74
2022/09/03 15:15:00;;;;;;;7.00;4.15;;;27.30;51.90;;;;;;4996292;28;20513;-75
2022/09/03 15:18:03;;;;;;;6.43;4.18;;;27.50;52.00;;;;;;5000170;28;20460;-75
2022/09/03 15:20:50;;;;;;;7.00;4.65;;;27.60;51.70;;;;;;4996512;28;20069;-74
2022/09/03 15:23:32;;;;;;;8.95;5.45;;;27.70;53.10;;;;;;5004101;28;20038;-75
2022/09/03 15:26:40;;;;;;;6.57;4.65;;;27.70;53.40;;;;;;4999676;28;20284;-75
2022/09/03 15:29:12;;;;;;;9.25;3.70;;;27.60;54.00;;;;;;5004396;28;20362;-76
2022/09/03 15:31:53;;;;;;;5.35;2.90;;;27.30;53.40;;;;;;4995369;28;20129;-75
2022/09/03 15:35:05;;;;;;;3.25;2.28;;;27.10;52.50;;;;;;5005794;28;20532;-74
2022/09/03 15:37:38;;;;;;;6.30;2.58;;;26.90;52.00;;;;;;4986577;28;20038;-76
2022/09/03 15:40:33;;;;;;;4.63;2.20;;;26.70;52.20;;;;;;5009723;28;20076;-74
2022/09/03 15:43:09;;;;;;;4.13;2.30;;;26.70;52.10;;;;;;5002996;28;20049;-75
2022/09/03 15:45:36;;;;;;;3.72;2.60;;;26.80;52.00;;;;;;5008291;28;20462;-76
2022/09/03 15:48:22;;;;;;;5.03;2.42;;;26.90;52.30;;;;;;5007150;28;20564;-75
2022/09/03 15:51:12;;;;;;;6.43;4.00;;;26.90;52.10;;;;;;5010849;28;20049;-74
2022/09/03 15:53:44;;;;;;;5.75;3.08;;;26.90;53.10;;;;;;4998920;28;20092;-76
2022/09/03 15:56:23;;;;;;;5.22;2.95;;;27.00;53.60;;;;;;4997654;28;20038;-75
2022/09/03 15:59:10;;;;;;;7.93;3.50;;;26.90;53.50;;;;;;5002093;28;20046;-75
2022/09/03 16:01:53;;;;;;;5.55;3.22;;;27.00;53.40;;;;;;5003698;28;20039;-74
2022/09/03 16:04:33;;;;;;;5.03;3.40;;;27.00;53.90;;;;;;5007517;28;20120;-74
2022/09/03 16:07:02;;;;;;;7.32;4.65;;;27.10;53.60;;;;;;5000589;28;20033;-75
2022/09/03 16:09:46;;;;;;;7.32;4.60;;;27.20;53.70;;;;;;4998197;28;20600;-74
2022/09/03 16:12:30;;;;;;;7.55;4.45;;;27.20;54.10;;;;;;5006578;28;20045;-75
2022/09/03 16:15:14;;;;;;;6.70;4.15;;;27.20;53.40;;;;;;4995775;28;20030;-74
2022/09/03 16:18:17;;;;;;;6.28;3.85;;;27.30;53.50;;;;;;4997625;28;20043;-74
2022/09/03 16:21:07;;;;;;;7.30;3.67;;;27.20;53.70;;;;;;4996209;28;20876;-74
2022/09/03 16:23:52;;;;;;;5.90;3.90;;;27.50;52.40;;;;;;4974010;28;20529;-74
2022/09/03 16:26:26;;;;;;;5.75;3.25;;;27.40;52.40;;;;;;5007043;28;20057;-75
2022/09/03 16:29:12;;;;;;;5.65;3.60;;;27.50;51.80;;;;;;5000481;28;20379;-76
2022/09/03 16:31:55;;;;;;;7.25;4.13;;;27.50;52.40;;;;;;5003443;28;20052;-75
2022/09/03 16:34:48;;;;;;;6.28;3.70;;;27.40;52.50;;;;;;5006084;28;20053;-74
2022/09/03 16:37:29;;;;;;;7.35;3.90;;;27.30;52.90;;;;;;4994265;28;20057;-75
2022/09/03 16:40:05;;;;;;;5.53;3.10;;;27.40;53.00;;;;;;5002619;28;20069;-74
2022/09/03 16:42:34;;;;;;;5.05;3.05;;;27.40;51.40;;;;;;5000959;28;20826;-76
2022/09/03 16:45:21;;;;;;;5.30;3.00;;;27.30;51.50;;;;;;4995003;28;20117;-75
2022/09/03 16:48:05;;;;;;;4.90;2.92;;;27.30;50.90;;;;;;5001681;28;20478;-75
2022/09/03 16:50:57;;;;;;;4.13;2.90;;;27.20;51.60;;;;;;5009548;28;20561;-74
2022/09/03 16:53:43;;;;;;;4.20;2.67;;;27.00;52.10;;;;;;5004991;28;20431;-77
2022/09/03 16:56:33;;;;;;;5.20;2.80;;;26.80;52.20;;;;;;4998834;28;20089;-76
2022/09/03 16:59:32;;;;;;;5.55;3.17;;;26.50;52.60;;;;;;5000744;28;20045;-74
2022/09/03 17:02:24;;;;;;;4.38;2.90;;;26.30;53.50;;;;;;5004292;28;20137;-75
2022/09/03 17:05:12;;;;;;;6.20;2.90;;;26.10;53.70;;;;;;5001978;28;20033;-75
2022/09/03 17:07:59;;;;;;;5.13;3.28;;;26.00;53.90;;;;;;5009111;28;20045;-75
2022/09/03 17:11:02;;;;;;;4.45;2.83;;;25.90;54.60;;;;;;5002903;28;20126;-76
2022/09/03 17:13:57;;;;;;;5.20;3.40;;;25.80;55.00;;;;;;4999251;28;20605;-75
2022/09/03 17:16:44;;;;;;;4.90;2.97;;;25.70;55.60;;;;;;5028924;28;20386;-74
2022/09/03 17:19:20;;;;;;;7.03;3.42;;;25.60;56.00;;;;;;5021185;28;20149;-75
2022/09/03 17:21:57;;;;;;;5.43;3.08;;;25.60;56.50;;;;;;5000052;28;20049;-74
2022/09/03 17:24:50;;;;;;;5.57;3.40;;;25.50;56.70;;;;;;5005914;28;20045;-76
2022/09/03 17:27:37;;;;;;;4.55;3.17;;;25.50;56.80;;;;;;4996957;28;20030;-75
2022/09/03 17:30:11;;;;;;;6.30;3.60;;;25.40;57.40;;;;;;4999925;28;20088;-75
2022/09/03 17:32:46;;;;;;;5.32;2.88;;;25.40;57.80;;;;;;4997731;28;20068;-75
2022/09/03 17:35:53;;;;;;;4.78;3.15;;;25.40;58.00;;;;;;5014492;28;20397;-74
2022/09/03 17:38:36;;;;;;;5.20;3.45;;;25.30;58.30;;;;;;5006227;28;20037;-74
2022/09/03 17:41:25;;;;;;;5.43;3.10;;;25.20;58.80;;;;;;5003503;28;20084;-76
2022/09/03 17:44:17;;;;;;;5.75;3.45;;;25.20;58.90;;;;;;4999231;28;20050;-74
2022/09/03 17:46:55;;;;;;;5.75;3.70;;;25.10;59.10;;;;;;4998142;28;20058;-74
2022/09/03 17:49:47;;;;;;;6.43;3.78;;;25.10;59.60;;;;;;5001283;28;20054;-75
2022/09/03 17:52:42;;;;;;;7.13;3.40;;;25.00;59.70;;;;;;5004637;28;20120;-75
2022/09/03 17:55:14;;;;;;;5.88;3.20;;;25.00;60.00;;;;;;5000898;28;20057;-75
2022/09/03 17:57:51;;;;;;;6.00;3.70;;;25.00;60.30;;;;;;5006792;28;20077;-74
2022/09/03 18:00:24;;;;;;;7.20;4.05;;;24.90;60.40;;;;;;5015363;28;20172;-75
2022/09/03 18:03:11;;;;;;;6.68;4.35;;;24.80;60.50;;;;;;5003250;28;20034;-74
2022/09/03 18:05:58;;;;;;;7.40;3.97;;;24.70;60.90;;;;;;4998758;28;20042;-75
2022/09/03 18:08:45;;;;;;;8.82;4.00;;;24.60;61.30;;;;;;5006766;28;20501;-75
2022/09/03 18:11:29;;;;;;;6.47;3.80;;;24.60;61.50;;;;;;5006909;28;20847;-75
2022/09/03 18:14:00;;;;;;;;;;;24.50;62.10;;;;;;5009838;28;20095;-76
2022/09/03 18:16:31;;;;;;;6.80;4.00;;;24.40;62.00;;;;;;5009369;28;19913;-76
2022/09/03 18:19:07;;;;;;;8.57;4.47;;;24.30;62.20;;;;;;5005875;28;20562;-75
2022/09/03 20:11:38;;;;;;;24.00;21.55;;;22.20;76.20;;;;;;5012437;28;20044;-75
2022/09/03 20:14:14;;;;;;;24.63;22.08;;;22.10;76.40;;;;;;5004363;28;20058;-75
2022/09/03 20:17:03;;;;;;;23.25;20.85;;;22.10;76.50;;;;;;5009191;28;20045;-76
2022/09/03 20:19:39;;;;;;;22.08;19.77;;;22.20;76.30;;;;;;5003714;28;20049;-76
2022/09/03 20:22:27;;;;;;;24.70;22.45;;;22.10;76.30;;;;;;4998533;28;20845;-75
2022/09/03 20:25:17;;;;;;;30.63;27.63;;;22.10;76.30;;;;;;5010741;28;20048;-76
2022/09/03 20:27:45;;;;;;;29.00;26.00;;;22.10;76.30;;;;;;4997394;28;20061;-77
2022/09/03 20:30:25;;;;;;;27.30;24.50;;;22.10;76.40;;;;;;5002500;28;20045;-76
2022/09/03 20:33:20;;;;;;;27.85;25.23;;;22.10;76.40;;;;;;5006706;28;20038;-74
2022/09/03 20:36:23;;;;;;;28.58;25.52;;;22.10;76.40;;;;;;5002367;28;20057;-75
2022/09/03 20:39:20;;;;;;;27.77;25.17;;;22.10;76.40;;;;;;5001040;28;20038;-76
2022/09/03 20:41:56;;;;;;;29.55;26.50;;;22.10;76.50;;;;;;5002835;28;20030;-77
2022/09/03 20:44:52;;;;;;;27.02;24.27;;;22.10;76.60;;;;;;5029986;28;20077;-76
2022/09/03 20:47:58;;;;;;;26.45;23.80;;;22.00;76.70;;;;;;5019075;28;20037;-75
2022/09/03 20:50:49;;;;;;;24.00;21.70;;;22.00;76.90;;;;;;5007012;28;20045;-78
2022/09/03 20:53:30;;;;;;;25.25;22.65;;;22.00;77.10;;;;;;5011383;28;20128;-75
2022/09/03 20:56:02;;;;;;;25.08;22.55;;;21.90;77.30;;;;;;5015289;28;20030;-76
2022/09/03 20:58:57;;;;;;;25.23;22.55;;;21.90;77.50;;;;;;5009558;28;20477;-76
2022/09/03 21:01:29;;;;;;;23.83;21.40;;;21.80;77.70;;;;;;5003431;28;20076;-74
2022/09/03 21:04:10;;;;;;;24.88;22.38;;;21.80;77.70;;;;;;5002120;28;20030;-76
2022/09/03 21:06:58;;;;;;;24.63;22.13;;;21.80;77.90;;;;;;5007845;28;20037;-76
2022/09/03 21:09:29;;;;;;;23.65;20.98;;;21.80;77.90;;;;;;5013983;28;20034;-77
2022/09/03 21:12:26;;;;;;;27.05;24.38;;;21.70;78.00;;;;;;5005257;28;20034;-76
2022/09/03 21:15:25;;;;;;;23.98;21.48;;;21.80;78.10;;;;;;5018433;28;20041;-76
2022/09/03 21:18:00;;;;;;;27.67;24.80;;;21.70;78.20;;;;;;5011172;28;20111;-78
2022/09/03 21:20:54;;;;;;;27.25;24.50;;;21.70;78.20;;;;;;5009003;28;20057;-76
2022/09/03 21:23:47;;;;;;;30.02;27.00;;;21.70;78.30;;;;;;5007005;28;20038;-76
2022/09/03 21:26:20;;;;;;;30.35;27.23;;;21.70;78.40;;;;;;5001779;28;20038;-76
2022/09/03 21:29:03;;;;;;;26.73;23.95;;;21.70;78.50;;;;;;5008079;28;20103;-76
2022/09/03 21:31:53;;;;;;;27.50;24.70;;;21.70;78.70;;;;;;5004704;28;20120;-77
2022/09/03 21:34:56;;;;;;;33.33;29.92;;;21.60;78.70;;;;;;4977626;28;20507;-76
2022/09/03 21:37:23;;;;;;;31.45;27.88;;;21.60;78.80;;;;;;4987484;28;20042;-76
2022/09/03 21:39:56;;;;;;;30.90;27.38;;;21.60;79.00;;;;;;4981235;28;20050;-77
2022/09/03 21:42:47;;;;;;;38.40;34.65;;;21.60;79.10;;;;;;4992460;28;20045;-77
2022/09/03 21:45:38;;;;;;;35.95;32.35;;;21.60;79.40;;;;;;4983511;28;20046;-76
2022/09/03 21:48:15;;;;;;;36.42;32.63;;;21.60;79.60;;;;;;4982330;28;20048;-77
2022/09/03 21:50:44;;;;;;;40.10;35.80;;;21.60;79.60;;;;;;4988293;28;20042;-76
2022/09/03 21:53:56;;;;;;;42.42;38.13;;;21.60;79.70;;;;;;4976548;28;20046;-76
2022/09/03 21:56:43;;;;;;;41.97;37.47;;;21.50;79.90;;;;;;4914578;28;20550;-78
2022/09/03 21:59:30;;;;;;;42.85;38.35;;;21.50;80.00;;;;;;4949733;28;20047;-77
2022/09/03 22:02:21;;;;;;;50.13;45.08;;;21.50;80.20;;;;;;4996185;28;20405;-76
2022/09/03 22:04:46;;;;;;;47.88;42.35;;;21.50;80.40;;;;;;5003239;28;20481;-77
2022/09/03 22:07:42;;;;;;;46.20;41.40;;;21.50;80.60;;;;;;5013009;28;20140;-76
2022/09/03 22:10:17;;;;;;;45.38;40.75;;;21.40;80.60;;;;;;4996045;28;20053;-76
2022/09/03 22:12:49;;;;;;;42.65;38.22;;;21.40;80.70;;;;;;5008811;28;20042;-77
2022/09/03 22:15:16;;;;;;;42.50;38.10;;;21.40;80.60;;;;;;5006003;28;20037;-75
2022/09/03 22:18:14;;;;;;;42.03;37.70;;;21.40;80.60;;;;;;5004686;28;20030;-76
2022/09/03 22:20:44;;;;;;;41.92;37.63;;;21.30;80.70;;;;;;4988490;28;20470;-76
2022/09/03 22:23:42;;;;;;;43.10;38.70;;;21.30;80.90;;;;;;4981430;28;20538;-76
2022/09/03 22:26:47;;;;;;;44.67;39.85;;;21.20;80.60;;;;;;4974666;28;20043;-78
2022/09/03 22:29:14;;;;;;;42.03;37.72;;;21.10;80.80;;;;;;4979373;28;20046;-76
2022/09/03 22:32:05;;;;;;;43.17;38.75;;;21.10;81.00;;;;;;4984863;28;20093;-76
2022/09/03 22:34:55;;;;;;;41.35;37.20;;;21.00;81.20;;;;;;4986070;28;20093;-76
2022/09/03 22:37:42;;;;;;;43.05;38.65;;;21.00;81.30;;;;;;4990593;28;20172;-75
2022/09/03 22:40:29;;;;;;;44.97;40.35;;;21.00;81.50;;;;;;4983981;28;20117;-76
2022/09/03 22:43:27;;;;;;;43.95;39.53;;;21.00;81.40;;;;;;4986938;28;20035;-75
2022/09/03 22:46:01;;;;;;;45.97;41.00;;;20.90;81.50;;;;;;4968701;28;20101;-76
2022/09/03 22:48:54;;;;;;;45.85;41.13;;;20.90;81.70;;;;;;4981284;28;20117;-76
2022/09/03 22:51:20;;;;;;;45.75;40.95;;;20.80;81.90;;;;;;5016137;28;20042;-73
2022/09/03 22:54:22;;;;;;;47.55;42.53;;;20.70;82.10;;;;;;4991443;28;20035;-76
2022/09/03 22:56:48;;;;;;;48.92;43.95;;;20.70;82.30;;;;;;4990713;28;20034;-75
2022/09/03 22:59:28;;;;;;;47.03;42.03;;;20.60;82.50;;;;;;4986185;28;20106;-76
2022/09/03 23:02:21;;;;;;;51.13;45.70;;;20.60;82.70;;;;;;4985075;28;20046;-78
2022/09/03 23:04:53;;;;;;;53.97;48.30;;;20.50;82.80;;;;;;4978945;28;20031;-76
2022/09/03 23:07:44;;;;;;;52.65;47.17;;;20.60;83.00;;;;;;4987136;28;20058;-76
2022/09/03 23:10:15;;;;;;;53.47;47.85;;;20.50;83.10;;;;;;5010885;28;20377;-76
2022/09/03 23:12:46;;;;;;;55.85;49.95;;;20.40;83.20;;;;;;4991126;28;20042;-76
2022/09/03 23:15:22;;;;;;;67.25;58.42;;;20.30;83.40;;;;;;4982122;28;20031;-76
2022/09/03 23:18:03;;;;;;;64.47;57.42;;;20.30;83.70;;;;;;4990754;28;20034;-76
2022/09/03 23:20:31;;;;;;;72.70;64.00;;;20.30;84.10;;;;;;4985139;28;20041;-76
2022/09/03 23:23:15;;;;;;;65.72;58.63;;;20.20;84.20;;;;;;4978423;28;20475;-76
2022/09/03 23:25:48;;;;;;;64.72;57.75;;;20.30;84.40;;;;;;4987985;28;20397;-76
2022/09/03 23:28:22;;;;;;;67.68;60.33;;;20.20;84.40;;;;;;4981834;28;20047;-77
2022/09/03 23:30:49;;;;;;;71.95;63.25;;;20.20;84.40;;;;;;4998283;28;20050;-74
2022/09/03 23:33:15;;;;;;;71.53;63.75;;;20.20;84.20;;;;;;4972152;28;20045;-75
2022/09/03 23:36:01;;;;;;;66.53;59.15;;;20.10;84.30;;;;;;4988392;28;20042;-75
2022/09/03 23:38:43;;;;;;;73.38;65.13;;;20.10;84.50;;;;;;4991570;28;20050;-76
2022/09/03 23:41:20;;;;;;;69.60;62.00;;;20.00;84.40;;;;;;4988334;28;20050;-76
2022/09/03 23:43:55;;;;;;;65.72;58.58;;;20.10;84.50;;;;;;4996165;28;20124;-76
2022/09/03 23:46:36;;;;;;;68.05;59.00;;;20.00;84.60;;;;;;4974901;28;21754;-75
2022/09/03 23:49:17;;;;;;;60.50;54.15;;;20.00;84.70;;;;;;4984405;28;20100;-76
2022/09/03 23:52:08;;;;;;;62.22;54.80;;;19.90;84.50;;;;;;4991989;28;20038;-76
2022/09/03 23:54:38;;;;;;;61.35;54.85;;;19.90;84.30;;;;;;4989206;28;20088;-75
2022/09/03 23:57:13;;;;;;;65.43;57.75;;;19.80;84.40;;;;;;4986969;28;20046;-76
2022/09/03 23:59:50;;;;;;;64.55;57.50;;;19.80;84.40;;;;;;4977810;28;20050;-76
